Panda — PBCS — position and weather

sailwx.info

Track history (hours):
 
Tides and Currents Weather Stations Pressure Air Temp Water Temp Dewpoint Dewpoint Depression Visibility Wind Speed Wind Dir Waves Ship Positions

Panda

Last reported at 2014-Dec-19 18:33 UTC. Time now 2014-Dec-20 10:28 UTC.
Position N 37°37' W 000°33'.

Length 89 m; draft 4.2 m.

Type: Cargo ship. MMSI: 245014000.

Date/timePositionNaut miles runAvg speedWind from/ knotsBaromVisibWave heightAir tempDewpointWater temp
2014-Dec-19 18:33N 37°37' W 000°33'10 9.4
2014-Dec-19 17:29N 37°46' W 000°30'9 9.2
2014-Dec-19 16:33N 37°55' W 000°28'  
2014-Dec-17 11:05N 37°58' W 000°24'9 9.9
2014-Dec-17 10:13N 37°50' W 000°25'6 9.4
2014-Dec-17 09:32N 37°43' W 000°25'  
2014-Dec-10 13:32N 39°45' E 001°24'9 9.0
2014-Dec-10 12:33N 39°53' E 001°28'9 9.2
2014-Dec-10 11:33N 40°02' E 001°32'9 9.4
2014-Dec-10 10:33N 40°10' E 001°37'9 9.4
2014-Dec-10 09:33N 40°19' E 001°42'9 9.1
2014-Dec-10 08:33N 40°28' E 001°46'9 9.3
2014-Dec-10 07:33N 40°36' E 001°50'10 9.4
2014-Dec-10 06:29N 40°46' E 001°55'79 9.6
2014-Dec-09 22:16N 41°45' E 003°05'7 9.4
2014-Dec-09 21:29N 41°50' E 003°12'12 9.6
2014-Dec-09 20:15N 42°00' E 003°20'16 9.6
2014-Dec-09 18:33N 42°16' E 003°26'  
Track history (hours):
 
Tides and Currents Weather Stations Pressure Air Temp Water Temp Dewpoint Dewpoint Depression Visibility Wind Speed Wind Dir Waves Ship Positions

Panda

Last reported at 2014-Dec-19 18:33 UTC. Time now 2014-Dec-20 10:28 UTC.
Position N 37°37' W 000°33'.

Length 89 m; draft 4.2 m.

Type: Cargo ship. MMSI: 245014000.

Date/timePositionNaut miles runAvg speedWind from/ knotsBaromVisibWave heightAir tempDewpointWater temp
2014-Dec-19 18:33N 37°37' W 000°33'10 9.4
2014-Dec-19 17:29N 37°46' W 000°30'9 9.2
2014-Dec-19 16:33N 37°55' W 000°28'  
2014-Dec-17 11:05N 37°58' W 000°24'9 9.9
2014-Dec-17 10:13N 37°50' W 000°25'6 9.4
2014-Dec-17 09:32N 37°43' W 000°25'  
2014-Dec-10 13:32N 39°45' E 001°24'9 9.0
2014-Dec-10 12:33N 39°53' E 001°28'9 9.2
2014-Dec-10 11:33N 40°02' E 001°32'9 9.4
2014-Dec-10 10:33N 40°10' E 001°37'9 9.4
2014-Dec-10 09:33N 40°19' E 001°42'9 9.1
2014-Dec-10 08:33N 40°28' E 001°46'9 9.3
2014-Dec-10 07:33N 40°36' E 001°50'10 9.4
2014-Dec-10 06:29N 40°46' E 001°55'79 9.6
2014-Dec-09 22:16N 41°45' E 003°05'7 9.4
2014-Dec-09 21:29N 41°50' E 003°12'12 9.6
2014-Dec-09 20:15N 42°00' E 003°20'16 9.6
2014-Dec-09 18:33N 42°16' E 003°26'  

Dump ship's entire track history